Arcola, MO (65603)

12:39 PM CDT on July 30, 2015 (GMT -0500)
Greenfield West (WOHSN) | | Change Station
CLOSE
Current Station
Personal Weather Station
Location: Greenfield, MO
Elevation: 1066 ft
Nearby Weather Stations

Elev 1066 ft 37.42 °N, 93.85 °W | Updated 9 minutes ago

Clear
Clear
85.8 °F
Feels Like 88 °F
N
1.7
Wind Variable Wind from NNW

Today
High -- | Low -- °F
--% Chance of Precip.
Yesterday
High -- | Low -- °F
Precip. -- in
6:17 AM 8:25 PM
Waxing Gibbous, 99% visible
Pressure 30.18 in
Visibility 10.0 miles
Clouds Clear
Heat Index 88 °F
Dew Point 65 °F
Humidity 50%
Rainfall 0.00 in
Snow Depth Not available.
UV 10 out of 12
Pollen 5.50 out of 12
Air Quality Not available.
Flu Activity Not available.
METAR KSGF 301652Z 09008KT 10SM CLR 29/12 A3022 RMK AO2 SLP220 T02890122

More Conditions Fewer Conditions

Pressure 30.18 in
Visibility 10.0 miles
Clouds Clear
Heat Index 88 °F
Dew Point 65 °F
Humidity 50%
Rainfall 0.00 in
Snow Depth Not available.
UV 10 out of 12
Pollen 5.50 out of 12
Air Quality Not available.
Flu Activity Not available.
METAR KSGF 301652Z 09008KT 10SM CLR 29/12 A3022 RMK AO2 SLP220 T02890122

More Conditions Fewer Conditions

10-Day Weather Forecast

×

Almanac

Astronomy

Jul. 30, 2015 Rise Set
Actual Time
Civil Twilight
Nautical Twilight
Astronomical Twilight
Moon
Length of Visible Light
Length of Day
Tomorrow will be .
, % of the Moon is Illuminated

Today's Extremes

State Highs State Lows

Community

WunderPhotos

Upload Photos

1,842,427 photos uploaded!

WunderBlogs® & News

Nearby

Air Quality

  Air Quality AQ Index Pollutant
Not available.

Snow Depth

Station Depth Elevation

Earthquake Activity

City Distance Mag. Time & Date
Minimum magnitude displayed is 2.5.

Coastal Water Temperatures

Place Temperature

Stations

Nearby Weather Stations

Station Location Temp. Windchill Dew Point Humidity Wind Precip. Elev Updated Type